Time;durP1;ratioP1;P1;durP2;ratioP2;P2;SDS_P1;SDS_P2;PMS_P1;PMS_P2;Temp;Humidity;BMP_temperature;BMP_pressure;BME280_temperature;BME280_humidity;BME280_pressure;Samples;Min_cycle;Max_cycle;Signal;HPM_P1;HPM_P2
2023/06/30 00:02:07;;;;;;;;;;;24.20;65.50;;;;;;5070816;28;19912;-52
2023/06/30 00:04:33;;;;;;;;;;;24.20;66.10;;;;;;5070154;28;20271;-52
2023/06/30 00:06:59;;;;;;;;;;;24.10;65.30;;;;;;5055030;28;19948;-53
2023/06/30 00:09:24;;;;;;;;;;;24.10;65.10;;;;;;5051839;28;20356;-53
2023/06/30 00:11:50;;;;;;;;;;;24.20;65.10;;;;;;5068920;28;19921;-52
2023/06/30 00:14:16;;;;;;;;;;;24.20;65.00;;;;;;5072124;28;19970;-53
2023/06/30 00:16:41;;;;;;;;;;;24.10;64.80;;;;;;5071861;28;19913;-53
2023/06/30 00:19:08;;;;;;;;;;;24.20;64.60;;;;;;5071906;28;20407;-53
2023/06/30 00:21:33;;;;;;;;;;;24.20;64.30;;;;;;5070823;28;20007;-53
2023/06/30 00:24:01;;;;;;;;;;;24.10;64.40;;;;;;5071886;28;20035;-53
2023/06/30 00:26:30;;;;;;;;;;;24.10;64.30;;;;;;5071855;28;19912;-53
2023/06/30 00:28:56;;;;;;;;;;;24.10;64.10;;;;;;5070588;28;19926;-54
2023/06/30 00:31:21;;;;;;;;;;;24.10;64.10;;;;;;5070838;28;20005;-53
2023/06/30 00:33:47;;;;;;;;;;;24.10;64.00;;;;;;5071146;28;19917;-52
2023/06/30 00:36:12;;;;;;;;;;;24.10;63.70;;;;;;5069508;28;19913;-53
2023/06/30 00:38:38;;;;;;;;;;;24.10;63.80;;;;;;5071111;28;19916;-53
2023/06/30 00:41:03;;;;;;;;;;;24.10;63.70;;;;;;5071964;28;19908;-53
2023/06/30 00:43:29;;;;;;;;;;;24.10;63.70;;;;;;5071964;28;19944;-52
2023/06/30 00:45:54;;;;;;;;;;;24.10;63.80;;;;;;5072570;28;20299;-52
2023/06/30 00:48:20;;;;;;;;;;;24.10;63.70;;;;;;5107303;28;19917;-52
2023/06/30 00:50:45;;;;;;;;;;;24.10;63.60;;;;;;5069053;28;19921;-53
2023/06/30 00:53:11;;;;;;;;;;;24.10;63.50;;;;;;5071701;28;19959;-52
2023/06/30 00:55:37;;;;;;;;;;;24.10;63.50;;;;;;5066208;28;19920;-52
2023/06/30 00:58:02;;;;;;;;;;;24.10;63.50;;;;;;5054489;28;19909;-53
2023/06/30 01:00:28;;;;;;;;;;;24.10;63.50;;;;;;5059506;28;19914;-52
2023/06/30 01:02:53;;;;;;;;;;;24.00;63.50;;;;;;5108309;28;19908;-53
2023/06/30 01:05:25;;;;;;;;;;;24.10;63.60;;;;;;5073524;28;19912;-53
2023/06/30 01:08:02;;;;;;;;;;;24.10;63.60;;;;;;5060391;28;19913;-54
2023/06/30 01:10:27;;;;;;;;;;;24.10;63.40;;;;;;5065982;28;20353;-53
2023/06/30 01:12:53;;;;;;;;;;;24.10;63.50;;;;;;5108108;28;20011;-53
2023/06/30 01:15:18;;;;;;;;;;;24.10;63.50;;;;;;5108173;28;19959;-53
2023/06/30 01:17:46;;;;;;;;;;;24.10;63.50;;;;;;5075204;28;19919;-53
2023/06/30 01:20:12;;;;;;;;;;;24.10;63.50;;;;;;5107257;28;19919;-53
2023/06/30 01:22:44;;;;;;;;;;;24.00;63.40;;;;;;5073381;28;20315;-53
2023/06/30 01:25:11;;;;;;;;;;;24.00;63.60;;;;;;5067411;28;20003;-53
2023/06/30 01:27:37;;;;;;;;;;;24.00;63.60;;;;;;5067005;28;19908;-54
2023/06/30 01:30:05;;;;;;;;;;;24.00;63.60;;;;;;5068091;28;19924;-53
2023/06/30 01:32:31;;;;;;;;;;;24.00;63.50;;;;;;5055548;28;19913;-53
2023/06/30 01:34:56;;;;;;;;;;;24.00;63.50;;;;;;5068037;28;20380;-54
2023/06/30 01:37:21;;;;;;;;;;;24.00;63.40;;;;;;5065005;28;19919;-53
2023/06/30 01:39:47;;;;;;;;;;;24.00;63.30;;;;;;5073746;28;19916;-53
2023/06/30 01:42:12;;;;;;;;;;;24.00;63.30;;;;;;5073405;28;19957;-54
2023/06/30 01:44:38;;;;;;;;;;;24.00;63.30;;;;;;5069680;28;19921;-53
2023/06/30 01:47:03;;;;;;;;;;;24.00;63.20;;;;;;5072226;28;19927;-53
2023/06/30 01:49:29;;;;;;;;;;;24.00;63.20;;;;;;5090358;28;19921;-53
2023/06/30 01:51:54;;;;;;;;;;;24.00;63.20;;;;;;5065158;28;19912;-53
2023/06/30 01:54:21;;;;;;;;;;;24.00;63.10;;;;;;5073535;28;21317;-53
2023/06/30 01:56:48;;;;;;;;;;;24.00;63.20;;;;;;5074295;28;20022;-54
2023/06/30 01:59:14;;;;;;;;;;;24.00;63.20;;;;;;5073107;28;20335;-53
2023/06/30 02:01:39;;;;;;;;;;;24.00;63.20;;;;;;5070934;28;19919;-53
2023/06/30 02:04:05;;;;;;;;;;;24.00;63.00;;;;;;5070827;28;19913;-53
2023/06/30 02:06:30;;;;;;;;;;;24.00;63.20;;;;;;5074042;28;19939;-52
2023/06/30 02:08:56;;;;;;;;;;;24.00;63.10;;;;;;5074076;28;19919;-53
2023/06/30 02:11:21;;;;;;;;;;;23.90;63.00;;;;;;5074207;28;19919;-53
2023/06/30 02:13:46;;;;;;;;;;;24.00;63.10;;;;;;5074794;28;20361;-53
2023/06/30 02:16:12;;;;;;;;;;;23.90;63.00;;;;;;5071374;28;19912;-52
2023/06/30 02:18:39;;;;;;;;;;;23.90;63.00;;;;;;5066075;28;19924;-53
2023/06/30 02:21:05;;;;;;;;;;;24.00;63.10;;;;;;5073947;28;19912;-53
2023/06/30 02:23:30;;;;;;;;;;;24.00;63.00;;;;;;5074185;28;20010;-52
2023/06/30 02:25:56;;;;;;;;;;;24.00;62.90;;;;;;5074003;28;19943;-53
2023/06/30 02:28:22;;;;;;;;;;;24.00;62.80;;;;;;5063876;28;19912;-53
2023/06/30 02:30:47;;;;;;;;;;;24.00;62.80;;;;;;5073223;28;19920;-53
2023/06/30 02:33:13;;;;;;;;;;;24.00;62.80;;;;;;5073980;28;19909;-53
2023/06/30 02:35:38;;;;;;;;;;;24.00;62.80;;;;;;5074243;28;19923;-53
2023/06/30 02:38:05;;;;;;;;;;;23.90;62.80;;;;;;5071505;28;19966;-53
2023/06/30 02:40:31;;;;;;;;;;;23.90;62.80;;;;;;5073574;28;20361;-53
2023/06/30 02:42:56;;;;;;;;;;;23.90;62.80;;;;;;5073805;28;19914;-53
2023/06/30 02:45:22;;;;;;;;;;;23.90;62.80;;;;;;5070114;28;19946;-53
2023/06/30 02:47:47;;;;;;;;;;;23.90;62.80;;;;;;5053666;28;19939;-52
2023/06/30 02:50:12;;;;;;;;;;;23.90;63.60;;;;;;5069821;28;20378;-53
2023/06/30 02:52:38;;;;;;;;;;;23.90;62.60;;;;;;5065684;28;20082;-53
2023/06/30 02:55:04;;;;;;;;;;;23.90;62.60;;;;;;5053784;28;19919;-53
2023/06/30 02:57:29;;;;;;;;;;;23.90;62.50;;;;;;5053951;28;19948;-53
2023/06/30 02:59:55;;;;;;;;;;;23.90;62.40;;;;;;5057151;28;19915;-53
2023/06/30 03:02:20;;;;;;;;;;;23.90;62.30;;;;;;5101305;28;19938;-53
2023/06/30 03:04:45;;;;;;;;;;;23.80;62.10;;;;;;5069591;28;19912;-53
2023/06/30 03:07:11;;;;;;;;;;;23.80;61.90;;;;;;5060575;28;20403;-52
2023/06/30 03:09:37;;;;;;;;;;;23.80;62.00;;;;;;5064491;28;20380;-51
2023/06/30 03:12:02;;;;;;;;;;;23.80;61.90;;;;;;5073229;28;19979;-52
2023/06/30 03:14:28;;;;;;;;;;;23.80;61.80;;;;;;5072321;28;19908;-52
2023/06/30 03:16:53;;;;;;;;;;;23.80;61.70;;;;;;5069591;28;19917;-52
2023/06/30 03:19:18;;;;;;;;;;;23.80;61.50;;;;;;5071584;28;19923;-52
2023/06/30 03:21:44;;;;;;;;;;;23.80;61.50;;;;;;5071320;28;19997;-52
2023/06/30 03:24:09;;;;;;;;;;;23.80;61.40;;;;;;5072662;28;19918;-52
2023/06/30 03:26:35;;;;;;;;;;;23.80;61.20;;;;;;5071885;28;19934;-52
2023/06/30 03:29:01;;;;;;;;;;;23.80;61.10;;;;;;5071213;28;19916;-53
2023/06/30 03:31:26;;;;;;;;;;;23.80;61.10;;;;;;5068871;28;19913;-53
2023/06/30 03:33:52;;;;;;;;;;;23.70;61.00;;;;;;5071627;28;19958;-53
2023/06/30 03:36:17;;;;;;;;;;;23.70;61.00;;;;;;5064410;28;19913;-53
2023/06/30 03:38:43;;;;;;;;;;;23.70;61.10;;;;;;5052444;28;19916;-53
2023/06/30 03:41:08;;;;;;;;;;;23.70;60.90;;;;;;5063488;28;19912;-53
2023/06/30 03:43:34;;;;;;;;;;;23.70;60.80;;;;;;5096490;28;20015;-54
2023/06/30 03:45:59;;;;;;;;;;;23.70;60.90;;;;;;5061781;28;19924;-53
2023/06/30 03:48:25;;;;;;;;;;;23.70;61.10;;;;;;5070158;28;20426;-53
2023/06/30 03:50:53;;;;;;;;;;;23.70;61.00;;;;;;5072738;28;20473;-53
2023/06/30 03:53:19;;;;;;;;;;;23.70;60.90;;;;;;5070873;28;20372;-53
2023/06/30 03:55:44;;;;;;;;;;;23.60;60.90;;;;;;5072748;28;19908;-53
2023/06/30 03:58:10;;;;;;;;;;;23.60;61.00;;;;;;5064380;28;19913;-53
2023/06/30 04:00:35;;;;;;;;;;;23.60;61.00;;;;;;5063520;28;20003;-53
2023/06/30 04:03:01;;;;;;;;;;;23.70;60.90;;;;;;5068520;28;19916;-53
2023/06/30 04:05:26;;;;;;;;;;;23.70;60.90;;;;;;5072009;28;19999;-54
2023/06/30 04:07:51;;;;;;;;;;;23.60;60.90;;;;;;5059800;28;19923;-53
2023/06/30 04:10:17;;;;;;;;;;;23.60;61.00;;;;;;5055980;28;19914;-53
2023/06/30 04:12:42;;;;;;;;;;;23.60;60.90;;;;;;5071929;28;20047;-53
2023/06/30 04:15:10;;;;;;;;;;;23.60;61.10;;;;;;5071224;28;20385;-52
2023/06/30 04:17:35;;;;;;;;;;;23.60;61.10;;;;;;5070985;28;19913;-53
2023/06/30 04:20:03;;;;;;;;;;;23.50;61.00;;;;;;5072206;28;19920;-52
2023/06/30 04:22:28;;;;;;;;;;;23.50;61.10;;;;;;5070395;28;20233;-53
2023/06/30 04:24:54;;;;;;;;;;;23.50;61.00;;;;;;5071595;28;19922;-53
2023/06/30 04:27:19;;;;;;;;;;;23.50;61.00;;;;;;5071192;28;20380;-53
2023/06/30 04:29:44;;;;;;;;;;;23.50;61.10;;;;;;5071917;28;19920;-53
2023/06/30 04:32:10;;;;;;;;;;;23.50;61.00;;;;;;5071755;28;19920;-52
2023/06/30 04:34:35;;;;;;;;;;;23.60;61.00;;;;;;5071761;28;19908;-53
2023/06/30 04:37:01;;;;;;;;;;;23.60;60.90;;;;;;5070306;28;20353;-53
2023/06/30 04:39:26;;;;;;;;;;;23.60;61.00;;;;;;5070381;28;19936;-53
2023/06/30 04:41:52;;;;;;;;;;;23.50;61.70;;;;;;5071585;28;19912;-53
2023/06/30 04:44:18;;;;;;;;;;;23.50;61.10;;;;;;5071912;28;20379;-53
2023/06/30 04:46:43;;;;;;;;;;;23.50;61.20;;;;;;5070366;28;19955;-53
2023/06/30 04:49:09;;;;;;;;;;;23.50;61.20;;;;;;5071580;28;19920;-53
2023/06/30 04:51:35;;;;;;;;;;;23.50;61.30;;;;;;5069478;28;19912;-52
2023/06/30 04:54:01;;;;;;;;;;;23.50;61.30;;;;;;5052827;28;20399;-53
2023/06/30 04:56:26;;;;;;;;;;;23.50;61.90;;;;;;5066039;28;19912;-53
2023/06/30 04:58:52;;;;;;;;;;;23.60;61.20;;;;;;5071639;28;19912;-52
2023/06/30 05:01:17;;;;;;;;;;;23.60;61.00;;;;;;5071373;28;19912;-53
2023/06/30 05:03:43;;;;;;;;;;;23.60;61.10;;;;;;5070166;28;19917;-52
2023/06/30 05:06:08;;;;;;;;;;;23.60;61.20;;;;;;5071377;28;19967;-52
2023/06/30 05:08:34;;;;;;;;;;;23.50;61.20;;;;;;5072166;28;19919;-52
2023/06/30 05:10:59;;;;;;;;;;;23.60;61.50;;;;;;5066249;28;19924;-53
2023/06/30 05:13:25;;;;;;;;;;;23.60;61.20;;;;;;5066677;28;20327;-53
2023/06/30 05:15:50;;;;;;;;;;;23.60;61.30;;;;;;5057887;28;19924;-52
2023/06/30 05:18:16;;;;;;;;;;;23.60;61.30;;;;;;5070748;28;19962;-53
2023/06/30 05:20:41;;;;;;;;;;;23.70;61.20;;;;;;5071237;28;20003;-53
2023/06/30 05:23:07;;;;;;;;;;;23.70;61.20;;;;;;5070468;28;19943;-52
2023/06/30 05:25:32;;;;;;;;;;;23.70;61.30;;;;;;5069955;28;19916;-53
2023/06/30 05:27:57;;;;;;;;;;;23.70;61.30;;;;;;5071183;28;20421;-53
2023/06/30 05:30:23;;;;;;;;;;;23.70;61.40;;;;;;5067159;28;19927;-53
2023/06/30 05:32:48;;;;;;;;;;;23.70;61.30;;;;;;5073725;28;19919;-52
2023/06/30 05:35:14;;;;;;;;;;;23.60;61.40;;;;;;5073993;28;19915;-53
2023/06/30 05:37:39;;;;;;;;;;;23.70;61.60;;;;;;5057363;28;19959;-52
2023/06/30 05:40:05;;;;;;;;;;;23.70;61.50;;;;;;5071855;28;19909;-52
2023/06/30 05:42:30;;;;;;;;;;;23.70;61.70;;;;;;5067046;28;19913;-52
2023/06/30 05:44:56;;;;;;;;;;;23.70;61.40;;;;;;5070597;28;19963;-53
2023/06/30 05:47:21;;;;;;;;;;;23.70;61.70;;;;;;5066475;28;19927;-52
2023/06/30 05:49:47;;;;;;;;;;;23.70;61.80;;;;;;5074002;28;20377;-52
2023/06/30 05:52:12;;;;;;;;;;;23.60;61.60;;;;;;5069286;28;20356;-53
2023/06/30 05:54:38;;;;;;;;;;;23.70;61.70;;;;;;5064330;28;19916;-53
2023/06/30 05:57:04;;;;;;;;;;;23.60;61.60;;;;;;5074143;28;20368;-53
2023/06/30 05:59:30;;;;;;;;;;;23.70;61.70;;;;;;5074387;28;20381;-53
2023/06/30 06:01:56;;;;;;;;;;;23.60;61.70;;;;;;5070460;28;19912;-53
2023/06/30 06:04:21;;;;;;;;;;;23.70;61.70;;;;;;5069286;28;20242;-52
2023/06/30 06:06:47;;;;;;;;;;;23.70;61.60;;;;;;5064153;28;20381;-52
2023/06/30 06:09:12;;;;;;;;;;;23.70;61.50;;;;;;5067244;28;19917;-52
2023/06/30 06:11:39;;;;;;;;;;;23.70;61.50;;;;;;5072980;28;19912;-53
2023/06/30 06:14:04;;;;;;;;;;;23.70;61.70;;;;;;5073263;28;19917;-53
2023/06/30 06:16:30;;;;;;;;;;;23.70;61.70;;;;;;5070759;28;19999;-53
2023/06/30 06:18:55;;;;;;;;;;;23.70;61.60;;;;;;5062259;28;19987;-52
2023/06/30 06:21:24;;;;;;;;;;;23.70;61.60;;;;;;5064243;28;19953;-52
2023/06/30 06:23:50;;;;;;;;;;;23.70;61.50;;;;;;5070722;28;20009;-53
2023/06/30 06:26:16;;;;;;;;;;;23.70;62.30;;;;;;5074095;28;20373;-53
2023/06/30 06:28:42;;;;;;;;;;;23.70;61.50;;;;;;5073983;28;20407;-53
2023/06/30 06:31:07;;;;;;;;;;;23.70;61.60;;;;;;5074185;28;19913;-53
2023/06/30 06:33:33;;;;;;;;;;;23.70;61.70;;;;;;5073630;28;20354;-53
2023/06/30 06:35:58;;;;;;;;;;;23.60;61.80;;;;;;5073874;28;20403;-52
2023/06/30 06:38:24;;;;;;;;;;;23.60;61.70;;;;;;5070620;28;20335;-53
2023/06/30 06:40:49;;;;;;;;;;;23.60;61.70;;;;;;5072420;28;19916;-53
2023/06/30 06:43:15;;;;;;;;;;;23.60;61.70;;;;;;5073573;28;19920;-53
2023/06/30 06:45:43;;;;;;;;;;;23.60;61.60;;;;;;5073134;28;19927;-53
2023/06/30 06:48:18;;;;;;;;;;;23.50;61.70;;;;;;5060799;28;19923;-52
2023/06/30 06:50:44;;;;;;;;;;;23.50;62.00;;;;;;5060298;28;19925;-51
2023/06/30 06:53:10;;;;;;;;;;;23.50;62.00;;;;;;5071555;28;19909;-52
2023/06/30 06:55:35;;;;;;;;;;;23.50;61.80;;;;;;5062064;28;19963;-52
2023/06/30 06:58:01;;;;;;;;;;;23.40;61.90;;;;;;5066606;28;19921;-52
2023/06/30 07:00:26;;;;;;;;;;;23.40;61.90;;;;;;5061406;28;19920;-52
2023/06/30 07:02:52;;;;;;;;;;;23.50;62.10;;;;;;5066177;28;19915;-53
2023/06/30 07:05:17;;;;;;;;;;;23.50;61.90;;;;;;5070009;28;19912;-53
2023/06/30 07:07:43;;;;;;;;;;;23.40;61.80;;;;;;5068117;28;20377;-53
2023/06/30 07:10:08;;;;;;;;;;;23.40;61.60;;;;;;5067271;28;19920;-52
2023/06/30 07:12:34;;;;;;;;;;;23.50;61.70;;;;;;5065514;28;19923;-53
2023/06/30 07:14:59;;;;;;;;;;;23.50;61.50;;;;;;5072991;28;19946;-53
2023/06/30 07:17:24;;;;;;;;;;;23.50;61.40;;;;;;5054046;28;19949;-53
2023/06/30 07:19:50;;;;;;;;;;;23.50;61.40;;;;;;5063087;28;20062;-52
2023/06/30 07:22:15;;;;;;;;;;;23.50;61.20;;;;;;5067569;28;19931;-53
2023/06/30 07:24:41;;;;;;;;;;;23.60;61.20;;;;;;5069759;28;19919;-53
2023/06/30 07:27:06;;;;;;;;;;;23.60;60.90;;;;;;5055307;28;20334;-53
2023/06/30 07:29:32;;;;;;;;;;;23.60;61.00;;;;;;5072192;28;19919;-53
2023/06/30 07:31:57;;;;;;;;;;;23.60;61.00;;;;;;5057095;28;19913;-53
2023/06/30 07:34:23;;;;;;;;;;;23.60;60.70;;;;;;5056286;28;19923;-52
2023/06/30 07:36:52;;;;;;;;;;;23.60;60.70;;;;;;5056161;28;20014;-52
2023/06/30 07:39:18;;;;;;;;;;;23.70;60.80;;;;;;5051580;28;19918;-52
2023/06/30 07:41:43;;;;;;;;;;;23.70;60.90;;;;;;5061820;28;20552;-52
2023/06/30 07:44:12;;;;;;;;;;;23.70;60.70;;;;;;5095862;28;19916;-52
2023/06/30 07:46:37;;;;;;;;;;;23.70;60.50;;;;;;5059725;28;19986;-52
2023/06/30 07:49:03;;;;;;;;;;;23.70;60.60;;;;;;5059251;28;19924;-53
2023/06/30 07:51:29;;;;;;;;;;;23.70;60.30;;;;;;5060663;28;19924;-53
2023/06/30 07:53:55;;;;;;;;;;;23.70;60.60;;;;;;5061335;28;19913;-52
2023/06/30 07:56:20;;;;;;;;;;;23.70;60.60;;;;;;5061666;28;20372;-53
2023/06/30 07:58:46;;;;;;;;;;;23.70;60.40;;;;;;5060800;28;20453;-53
2023/06/30 08:01:11;;;;;;;;;;;23.70;60.40;;;;;;5060952;28;20304;-53
2023/06/30 08:03:36;;;;;;;;;;;23.70;60.30;;;;;;5062852;28;20323;-53
2023/06/30 08:06:02;;;;;;;;;;;23.70;60.30;;;;;;5061776;28;19913;-53
2023/06/30 08:08:29;;;;;;;;;;;23.70;60.00;;;;;;5057121;28;19917;-53
2023/06/30 08:10:54;;;;;;;;;;;23.80;60.10;;;;;;5072277;28;19921;-54
2023/06/30 08:13:20;;;;;;;;;;;23.80;60.00;;;;;;5063280;28;19974;-53
2023/06/30 08:15:45;;;;;;;;;;;23.80;59.80;;;;;;5060933;28;20328;-53
2023/06/30 08:18:11;;;;;;;;;;;23.80;59.70;;;;;;5060571;28;19931;-52
2023/06/30 08:20:36;;;;;;;;;;;23.80;59.60;;;;;;5063701;28;19924;-53
2023/06/30 08:23:02;;;;;;;;;;;23.80;59.50;;;;;;5059794;28;20011;-53
2023/06/30 08:25:28;;;;;;;;;;;23.80;59.50;;;;;;5064700;28;19916;-53
2023/06/30 08:27:54;;;;;;;;;;;23.80;59.30;;;;;;5049285;28;20273;-52
2023/06/30 08:30:19;;;;;;;;;;;23.80;59.20;;;;;;5071421;28;19927;-52
2023/06/30 08:32:44;;;;;;;;;;;23.80;59.20;;;;;;5061609;28;19949;-52
2023/06/30 08:35:10;;;;;;;;;;;23.80;59.00;;;;;;5058204;28;19916;-52
2023/06/30 08:37:37;;;;;;;;;;;23.80;58.80;;;;;;5056360;28;19970;-52
2023/06/30 08:40:02;;;;;;;;;;;23.80;58.30;;;;;;5065090;28;19948;-53
2023/06/30 08:42:28;;;;;;;;;;;23.80;58.30;;;;;;5063227;28;19979;-53
2023/06/30 08:44:54;;;;;;;;;;;23.80;58.10;;;;;;5096848;28;19942;-53
2023/06/30 08:47:20;;;;;;;;;;;23.70;58.10;;;;;;5090075;28;20432;-54
2023/06/30 08:49:47;;;;;;;;;;;23.70;58.00;;;;;;5064455;28;20345;-54
2023/06/30 08:52:14;;;;;;;;;;;23.70;57.70;;;;;;5062427;28;19913;-54
2023/06/30 08:54:40;;;;;;;;;;;23.80;57.60;;;;;;5067074;28;19965;-53
2023/06/30 08:57:05;;;;;;;;;;;23.80;57.20;;;;;;5065428;28;19912;-53
2023/06/30 08:59:31;;;;;;;;;;;23.70;56.90;;;;;;5066329;28;20241;-54
2023/06/30 09:01:56;;;;;;;;;;;23.70;56.90;;;;;;5063497;28;20009;-53
2023/06/30 09:04:22;;;;;;;;;;;23.70;56.90;;;;;;5058158;28;19921;-53
2023/06/30 09:06:48;;;;;;;;;;;23.70;56.50;;;;;;5094624;28;19919;-54
2023/06/30 09:09:27;;;;;;;;;;;23.70;56.40;;;;;;5065719;28;19920;-53
2023/06/30 09:11:53;;;;;;;;;;;23.70;56.10;;;;;;5069390;28;19916;-53
2023/06/30 09:14:18;;;;;;;;;;;23.80;56.10;;;;;;5101009;28;20090;-54
2023/06/30 09:16:43;;;;;;;;;;;23.80;56.00;;;;;;5104802;27;19916;-53
2023/06/30 09:19:09;;;;;;;;;;;23.80;55.70;;;;;;5091616;28;19917;-54
2023/06/30 09:21:35;;;;;;;;;;;23.90;55.60;;;;;;5093256;28;19913;-52
2023/06/30 09:24:00;;;;;;;;;;;23.90;55.70;;;;;;5065505;28;20015;-52
2023/06/30 09:26:26;;;;;;;;;;;23.90;55.10;;;;;;5068351;28;20274;-54
2023/06/30 09:28:53;;;;;;;;;;;23.90;55.10;;;;;;5112229;27;19912;-53
2023/06/30 09:31:18;;;;;;;;;;;23.90;55.20;;;;;;5073542;28;19912;-55
2023/06/30 09:33:47;;;;;;;;;;;23.90;54.90;;;;;;5063432;28;19996;-53
2023/06/30 09:36:15;;;;;;;;;;;23.90;54.80;;;;;;5056398;28;19916;-53
2023/06/30 09:38:41;;;;;;;;;;;23.80;54.50;;;;;;5058595;28;20003;-54
2023/06/30 09:41:07;;;;;;;;;;;23.80;54.30;;;;;;5073282;28;20004;-54
2023/06/30 09:43:33;;;;;;;;;;;23.80;54.40;;;;;;5106204;28;20319;-54
2023/06/30 09:45:59;;;;;;;;;;;23.80;54.20;;;;;;5099166;28;19928;-53
2023/06/30 09:48:31;;;;;;;;;;;23.90;54.10;;;;;;5065621;28;19958;-53
2023/06/30 09:50:56;;;;;;;;;;;23.90;54.00;;;;;;5064564;28;19912;-53
2023/06/30 09:53:22;;;;;;;;;;;24.00;53.80;;;;;;5064277;28;20351;-52
2023/06/30 09:55:50;;;;;;;;;;;24.10;53.40;;;;;;5070237;28;20000;-53
2023/06/30 09:58:19;;;;;;;;;;;24.10;53.20;;;;;;5060712;28;19966;-53
2023/06/30 10:00:45;;;;;;;;;;;24.10;53.20;;;;;;5066892;28;19912;-52
2023/06/30 10:03:11;;;;;;;;;;;24.20;53.10;;;;;;5076876;28;19908;-53
2023/06/30 10:05:37;;;;;;;;;;;24.20;52.90;;;;;;5070539;28;19974;-53
2023/06/30 10:08:02;;;;;;;;;;;24.20;52.70;;;;;;5055916;28;19946;-52
2023/06/30 10:10:28;;;;;;;;;;;24.20;52.80;;;;;;5069049;28;20282;-53
2023/06/30 10:12:53;;;;;;;;;;;24.10;52.90;;;;;;5062957;28;19917;-54
2023/06/30 10:15:19;;;;;;;;;;;24.10;53.00;;;;;;5075600;28;19917;-54
2023/06/30 10:17:44;;;;;;;;;;;24.00;52.90;;;;;;5091816;28;19913;-53
2023/06/30 10:20:10;;;;;;;;;;;24.00;52.80;;;;;;5091963;28;19917;-53
2023/06/30 10:22:36;;;;;;;;;;;24.00;53.00;;;;;;5064245;28;19927;-54
2023/06/30 10:25:02;;;;;;;;;;;24.00;52.50;;;;;;5064864;28;20411;-53
2023/06/30 10:27:28;;;;;;;;;;;24.00;52.90;;;;;;5063583;28;19950;-54
2023/06/30 10:29:54;;;;;;;;;;;24.00;52.40;;;;;;5099455;27;19965;-53
2023/06/30 10:32:20;;;;;;;;;;;23.80;52.00;;;;;;5060944;28;19925;-54
2023/06/30 10:34:47;;;;;;;;;;;23.80;52.00;;;;;;5089999;28;19909;-54
2023/06/30 10:37:13;;;;;;;;;;;23.80;52.10;;;;;;5053967;28;19913;-52
2023/06/30 10:39:38;;;;;;;;;;;23.80;52.20;;;;;;5060533;28;20502;-52
2023/06/30 10:42:04;;;;;;;;;;;23.80;51.80;;;;;;5067557;28;19998;-52
2023/06/30 10:44:39;;;;;;;;;;;23.80;51.70;;;;;;5070585;28;19908;-53
2023/06/30 10:47:04;;;;;;;;;;;23.80;52.20;;;;;;5085905;28;20408;-53
2023/06/30 10:49:33;;;;;;;;;;;23.80;51.80;;;;;;5099641;28;19917;-53
2023/06/30 10:52:03;;;;;;;;;;;23.80;51.60;;;;;;5056992;28;20296;-52
2023/06/30 10:54:39;;;;;;;;;;;23.90;52.20;;;;;;5056019;28;19935;-52
2023/06/30 10:57:08;;;;;;;;;;;23.90;52.50;;;;;;5054447;28;19909;-53
2023/06/30 10:59:43;;;;;;;;;;;23.90;52.50;;;;;;5057669;28;19913;-53
2023/06/30 11:02:12;;;;;;;;;;;23.90;51.90;;;;;;5072386;28;19968;-53
2023/06/30 11:04:38;;;;;;;;;;;24.00;52.60;;;;;;5065750;28;20285;-52
2023/06/30 11:07:03;;;;;;;;;;;24.00;51.90;;;;;;5060592;28;19909;-53
2023/06/30 11:09:47;;;;;;;;;;;24.10;52.30;;;;;;5058489;28;19968;-53
2023/06/30 11:12:19;;;;;;;;;;;24.20;52.10;;;;;;5066504;28;19920;-54
2023/06/30 11:14:57;;;;;;;;;;;24.30;51.60;;;;;;5060374;28;19913;-54
2023/06/30 11:17:23;;;;;;;;;;;24.30;51.50;;;;;;5068766;28;19932;-53
2023/06/30 11:20:00;;;;;;;;;;;24.30;51.80;;;;;;5065199;28;19921;-53
2023/06/30 11:22:25;;;;;;;;;;;24.30;51.20;;;;;;5097846;28;19912;-53
2023/06/30 11:24:51;;;;;;;;;;;24.30;51.20;;;;;;5072649;28;19923;-54
2023/06/30 11:27:17;;;;;;;;;;;24.40;50.80;;;;;;5066302;28;19919;-53
2023/06/30 11:29:42;;;;;;;;;;;24.40;50.90;;;;;;5057064;28;19919;-54
2023/06/30 11:32:08;;;;;;;;;;;24.40;50.60;;;;;;5050779;28;19913;-54
2023/06/30 11:34:34;;;;;;;;;;;24.30;50.90;;;;;;5057245;28;19923;-54
2023/06/30 11:37:04;;;;;;;;;;;24.40;50.80;;;;;;5091555;28;20415;-53
2023/06/30 11:39:29;;;;;;;;;;;24.40;50.60;;;;;;5058104;28;19964;-54
2023/06/30 11:41:54;;;;;;;;;;;24.40;50.50;;;;;;5059764;28;20020;-54
2023/06/30 11:44:20;;;;;;;;;;;24.40;50.40;;;;;;5068406;28;19943;-53
2023/06/30 11:46:45;;;;;;;;;;;24.50;50.60;;;;;;5057205;28;19932;-52
2023/06/30 11:49:11;;;;;;;;;;;24.50;50.70;;;;;;5061831;28;19916;-53
2023/06/30 11:51:36;;;;;;;;;;;24.50;50.20;;;;;;5063953;28;19912;-52
2023/06/30 11:54:02;;;;;;;;;;;24.60;50.70;;;;;;5068041;28;19924;-53
2023/06/30 11:56:29;;;;;;;;;;;24.60;50.50;;;;;;5059898;28;20007;-53
2023/06/30 11:58:54;;;;;;;;;;;24.50;50.50;;;;;;5056930;28;20007;-53
2023/06/30 12:01:20;;;;;;;;;;;24.60;50.00;;;;;;5055868;28;20039;-53
2023/06/30 12:03:45;;;;;;;;;;;24.60;50.00;;;;;;5098513;28;20426;-53
2023/06/30 12:06:11;;;;;;;;;;;24.60;49.30;;;;;;5057108;28;20417;-53
2023/06/30 12:08:38;;;;;;;;;;;24.60;49.70;;;;;;5057343;28;20252;-53
2023/06/30 12:11:04;;;;;;;;;;;24.60;48.60;;;;;;5052451;28;19920;-53
2023/06/30 12:13:29;;;;;;;;;;;24.70;48.30;;;;;;5066565;28;19912;-53
2023/06/30 12:15:55;;;;;;;;;;;24.70;48.10;;;;;;5071230;28;20287;-53
2023/06/30 12:18:36;;;;;;;;;;;24.70;48.10;;;;;;5064321;28;19913;-53
2023/06/30 12:21:02;;;;;;;;;;;24.80;47.50;;;;;;5068049;28;20331;-53
2023/06/30 12:23:28;;;;;;;;;;;24.90;47.40;;;;;;5064174;28;19912;-53
2023/06/30 12:25:55;;;;;;;;;;;24.90;47.90;;;;;;5066211;28;19955;-53
2023/06/30 12:28:21;;;;;;;;;;;24.90;47.60;;;;;;5062875;28;19912;-53
2023/06/30 12:30:46;;;;;;;;;;;25.00;47.70;;;;;;5066522;28;19916;-54
2023/06/30 12:33:16;;;;;;;;;;;25.00;47.30;;;;;;5064799;28;19928;-53
2023/06/30 12:35:42;;;;;;;;;;;24.90;47.40;;;;;;5080874;28;20316;-53
2023/06/30 12:38:09;;;;;;;;;;;24.90;47.50;;;;;;5062903;28;19912;-53
2023/06/30 12:40:34;;;;;;;;;;;24.90;47.50;;;;;;5060938;28;19916;-53
2023/06/30 12:43:00;;;;;;;;;;;25.00;47.60;;;;;;5054189;28;20004;-53
2023/06/30 12:45:25;;;;;;;;;;;25.00;47.00;;;;;;5065142;28;20293;-54
2023/06/30 12:47:51;;;;;;;;;;;24.90;47.00;;;;;;5065190;28;19916;-54
2023/06/30 12:50:17;;;;;;;;;;;24.90;47.60;;;;;;5058745;28;19917;-53
2023/06/30 12:52:42;;;;;;;;;;;25.00;47.20;;;;;;5058188;28;19920;-54
2023/06/30 12:55:09;;;;;;;;;;;25.00;46.30;;;;;;5066755;28;19913;-53
2023/06/30 12:57:34;;;;;;;;;;;25.00;46.60;;;;;;5055454;28;19923;-54
2023/06/30 13:00:00;;;;;;;;;;;24.90;46.50;;;;;;5054786;28;19912;-53
2023/06/30 13:02:25;;;;;;;;;;;24.90;46.40;;;;;;5059060;28;20323;-53
2023/06/30 13:04:51;;;;;;;;;;;24.90;46.60;;;;;;5056244;28;19924;-53
2023/06/30 13:07:17;;;;;;;;;;;24.90;45.90;;;;;;5068142;28;19912;-54
2023/06/30 13:09:47;;;;;;;;;;;24.90;46.10;;;;;;5062176;28;19916;-53
2023/06/30 13:12:13;;;;;;;;;;;24.80;46.30;;;;;;5060089;28;19924;-53
2023/06/30 13:14:39;;;;;;;;;;;24.80;46.40;;;;;;5060028;28;19959;-53
2023/06/30 13:17:04;;;;;;;;;;;24.80;46.90;;;;;;5061849;28;20411;-52
2023/06/30 13:19:30;;;;;;;;;;;24.70;46.80;;;;;;5062120;28;20307;-52
2023/06/30 13:21:56;;;;;;;;;;;24.70;46.90;;;;;;5057967;28;20317;-52
2023/06/30 13:24:21;;;;;;;;;;;24.60;46.90;;;;;;5064788;28;20348;-53
2023/06/30 13:26:47;;;;;;;;;;;24.60;47.00;;;;;;5061935;28;19920;-52
2023/06/30 13:29:12;;;;;;;;;;;24.60;47.10;;;;;;5054411;28;19921;-52
2023/06/30 13:31:38;;;;;;;;;;;24.60;47.40;;;;;;5060653;28;20226;-53
2023/06/30 13:34:03;;;;;;;;;;;24.60;47.20;;;;;;5062584;28;20047;-53
2023/06/30 13:36:29;;;;;;;;;;;24.50;46.90;;;;;;5061980;28;20251;-53
2023/06/30 13:38:56;;;;;;;;;;;24.50;47.00;;;;;;5058925;28;19913;-53
2023/06/30 13:41:24;;;;;;;;;;;24.50;46.90;;;;;;5065811;28;20107;-53
2023/06/30 13:43:49;;;;;;;;;;;24.50;46.70;;;;;;5098929;28;19916;-52
2023/06/30 13:46:15;;;;;;;;;;;24.50;46.70;;;;;;5060676;28;19935;-53
2023/06/30 13:48:40;;;;;;;;;;;24.50;47.10;;;;;;5065591;28;19913;-53
2023/06/30 13:51:06;;;;;;;;;;;24.50;46.70;;;;;;5049124;28;19912;-58
2023/06/30 13:53:31;;;;;;;;;;;24.40;47.30;;;;;;5065215;28;19908;-52
2023/06/30 13:55:58;;;;;;;;;;;24.40;47.00;;;;;;5067841;28;19943;-53
2023/06/30 13:58:23;;;;;;;;;;;24.50;47.20;;;;;;5060999;28;20509;-53
2023/06/30 14:00:49;;;;;;;;;;;24.50;47.10;;;;;;5057316;28;19917;-53
2023/06/30 14:03:15;;;;;;;;;;;24.50;47.40;;;;;;5056912;28;20266;-54
2023/06/30 14:05:41;;;;;;;;;;;24.70;47.00;;;;;;5069027;28;19916;-54
2023/06/30 14:08:07;;;;;;;;;;;24.70;46.80;;;;;;5060447;28;20272;-54
2023/06/30 14:10:32;;;;;;;;;;;24.70;46.60;;;;;;5064026;28;19924;-53